createdAt,value
2023-01-19T00:00:21.092Z,20.38
2023-01-19T00:03:16.276Z,21.30
2023-01-19T00:05:44.734Z,20.15
2023-01-19T00:08:17.755Z,19.83
2023-01-19T00:10:47.776Z,20.70
2023-01-19T00:13:16.860Z,21.95
2023-01-19T00:15:45.089Z,20.40
2023-01-19T00:18:13.299Z,21.25
2023-01-19T00:20:41.801Z,21.58
2023-01-19T00:23:10.142Z,20.00
2023-01-19T00:25:42.429Z,19.65
2023-01-19T00:28:11.293Z,19.35
2023-01-19T00:30:39.435Z,18.45
2023-01-19T00:33:07.628Z,20.15
2023-01-19T00:35:35.775Z,21.00
2023-01-19T00:38:04.551Z,21.98
2023-01-19T00:40:32.534Z,22.58
2023-01-19T00:43:03.238Z,22.13
2023-01-19T00:45:31.925Z,20.73
2023-01-19T00:48:00.193Z,22.00
2023-01-19T00:50:29.816Z,21.23
2023-01-19T00:53:01.085Z,19.58
2023-01-19T00:55:29.900Z,19.03
2023-01-19T00:57:58.545Z,19.15
2023-01-19T01:00:27.983Z,19.08
2023-01-19T01:02:56.491Z,18.15
2023-01-19T01:05:24.591Z,20.13
2023-01-19T01:07:52.804Z,19.67
2023-01-19T01:10:22.852Z,19.20
2023-01-19T01:12:56.083Z,19.42
2023-01-19T01:15:28.153Z,19.30
2023-01-19T01:17:56.927Z,19.15
2023-01-19T01:20:27.650Z,20.00
2023-01-19T01:22:57.741Z,19.30
2023-01-19T01:25:27.521Z,19.00
2023-01-19T01:27:56.077Z,19.27
2023-01-19T01:30:24.549Z,19.15
2023-01-19T01:32:54.190Z,19.98
2023-01-19T01:35:22.139Z,20.42
2023-01-19T01:37:50.353Z,20.55
2023-01-19T01:40:19.546Z,19.67
2023-01-19T01:42:48.223Z,21.27
2023-01-19T01:45:29.893Z,20.23
2023-01-19T01:48:06.226Z,20.90
2023-01-19T01:50:36.414Z,19.25
2023-01-19T01:53:08.499Z,20.67
2023-01-19T01:55:40.182Z,19.52
2023-01-19T01:58:09.117Z,15.90
2023-01-19T02:00:51.136Z,18.77
2023-01-19T02:03:21.159Z,20.88
2023-01-19T02:05:49.247Z,23.00
2023-01-19T02:08:38.638Z,22.52
2023-01-19T02:11:25.001Z,22.88
2023-01-19T02:13:53.343Z,22.00
2023-01-19T02:16:21.390Z,22.35
2023-01-19T02:18:50.989Z,23.23
2023-01-19T02:21:21.144Z,26.08
2023-01-19T02:23:52.279Z,23.60
2023-01-19T02:26:21.986Z,25.73
2023-01-19T02:28:53.362Z,25.77
2023-01-19T02:31:21.453Z,25.70
2023-01-19T02:33:50.132Z,23.50
2023-01-19T02:36:19.166Z,22.98
2023-01-19T02:38:49.847Z,23.95
2023-01-19T02:41:20.495Z,24.02
2023-01-19T02:43:49.781Z,26.83
2023-01-19T02:46:17.722Z,25.55
2023-01-19T02:48:45.911Z,22.73
2023-01-19T02:51:16.881Z,24.92
2023-01-19T02:54:09.627Z,24.48
2023-01-19T02:56:47.937Z,24.48
2023-01-19T02:59:23.448Z,25.92
2023-01-19T03:02:08.936Z,25.25
2023-01-19T03:04:45.821Z,26.63
2023-01-19T03:07:17.019Z,25.73
2023-01-19T03:09:52.857Z,25.30
2023-01-19T03:12:25.947Z,24.75
2023-01-19T03:14:56.954Z,23.23
2023-01-19T03:17:25.887Z,24.90
2023-01-19T03:19:55.205Z,23.52
2023-01-19T03:22:26.254Z,20.63
2023-01-19T03:24:57.584Z,15.85
2023-01-19T03:27:28.427Z,28.08
2023-01-19T03:29:59.055Z,27.50
2023-01-19T03:32:30.600Z,22.60
2023-01-19T03:35:01.506Z,25.55
2023-01-19T03:37:31.284Z,24.30
2023-01-19T03:40:01.427Z,24.98
2023-01-19T03:42:29.930Z,22.75
2023-01-19T03:44:58.644Z,22.80
2023-01-19T03:47:26.885Z,24.23
2023-01-19T03:49:55.653Z,21.67
2023-01-19T03:52:30.377Z,22.17
2023-01-19T03:54:59.866Z,21.17
2023-01-19T03:57:27.762Z,22.40
2023-01-19T03:59:56.991Z,21.25
2023-01-19T04:02:25.199Z,19.73
2023-01-19T04:04:53.440Z,17.70
2023-01-19T04:07:21.390Z,20.38
2023-01-19T04:09:49.592Z,19.40
2023-01-19T04:12:18.823Z,19.42
2023-01-19T04:14:47.522Z,20.00
2023-01-19T04:17:16.047Z,18.92
2023-01-19T04:19:45.139Z,16.35
2023-01-19T04:22:13.035Z,16.73
2023-01-19T04:24:41.370Z,17.15
2023-01-19T04:27:09.277Z,15.50
2023-01-19T04:29:38.785Z,18.05
2023-01-19T04:32:07.050Z,14.18
2023-01-19T04:34:35.347Z,13.57
2023-01-19T04:37:03.284Z,13.75
2023-01-19T04:39:31.713Z,14.32
2023-01-19T04:42:00.779Z,15.02
2023-01-19T04:44:29.113Z,14.02
2023-01-19T04:46:58.550Z,14.38
2023-01-19T04:49:26.737Z,16.35
2023-01-19T04:51:55.096Z,15.35
2023-01-19T04:54:23.784Z,14.02
2023-01-19T04:56:51.846Z,12.40
2023-01-19T04:59:21.480Z,10.88
2023-01-19T05:01:49.729Z,12.60
2023-01-19T05:04:19.471Z,12.40
2023-01-19T05:06:47.420Z,11.80
2023-01-19T05:09:15.853Z,12.77
2023-01-19T05:11:43.808Z,11.88
2023-01-19T05:14:12.015Z,12.95
2023-01-19T05:16:39.953Z,12.75
2023-01-19T05:19:08.207Z,13.07
2023-01-19T05:21:37.569Z,13.10
2023-01-19T05:24:06.106Z,14.15
2023-01-19T05:26:34.140Z,23.67
2023-01-19T05:29:02.385Z,27.65
2023-01-19T05:31:30.400Z,28.58
2023-01-19T05:33:58.795Z,27.35
2023-01-19T05:36:27.114Z,25.58
2023-01-19T05:38:56.689Z,29.50
2023-01-19T05:41:24.813Z,32.55
2023-01-19T05:43:53.046Z,34.53
2023-01-19T05:46:21.057Z,35.63
2023-01-19T05:48:49.238Z,37.40
2023-01-19T05:51:17.361Z,36.35
2023-01-19T05:53:45.857Z,35.47
2023-01-19T05:56:15.126Z,36.70
2023-01-19T05:58:43.289Z,41.00
2023-01-19T06:01:11.641Z,37.47
2023-01-19T06:03:40.904Z,37.38
2023-01-19T06:06:09.175Z,38.83
2023-01-19T06:08:37.586Z,35.65
2023-01-19T06:11:07.382Z,32.58
2023-01-19T06:13:37.055Z,39.80
2023-01-19T06:16:05.190Z,28.08
2023-01-19T06:18:33.436Z,27.58
2023-01-19T06:21:04.673Z,26.63
2023-01-19T06:23:33.652Z,31.33
2023-01-19T06:26:01.870Z,34.35
2023-01-19T06:28:30.157Z,37.30
2023-01-19T06:30:59.595Z,39.42
2023-01-19T06:33:28.865Z,41.13
2023-01-19T06:35:57.351Z,37.85
2023-01-19T06:38:26.228Z,38.30
2023-01-19T06:40:55.354Z,36.70
2023-01-19T06:43:23.690Z,38.50
2023-01-19T06:45:51.999Z,39.22
2023-01-19T06:48:21.907Z,40.80
2023-01-19T06:50:49.896Z,41.38
2023-01-19T06:53:20.687Z,42.47
2023-01-19T06:55:48.628Z,39.08
2023-01-19T06:58:16.890Z,36.63
2023-01-19T07:00:44.945Z,35.15
2023-01-19T07:03:21.450Z,29.90
2023-01-19T07:05:52.806Z,32.97
2023-01-19T07:08:21.119Z,32.97
2023-01-19T07:11:25.880Z,28.35
2023-01-19T07:13:39.025Z,28.15
2023-01-19T07:16:08.340Z,31.65
2023-01-19T07:18:38.213Z,29.70
2023-01-19T07:21:06.999Z,27.40
2023-01-19T07:23:35.858Z,35.08
2023-01-19T07:26:03.780Z,35.83
2023-01-19T07:28:32.912Z,34.30
2023-01-19T07:31:01.005Z,32.90
2023-01-19T07:33:29.826Z,37.30
2023-01-19T07:35:59.199Z,40.00
2023-01-19T07:38:27.510Z,44.47
2023-01-19T07:41:01.658Z,47.35
2023-01-19T07:43:29.922Z,56.58
2023-01-19T07:45:58.209Z,52.05
2023-01-19T07:48:26.459Z,53.25
2023-01-19T07:50:54.810Z,45.50
2023-01-19T07:53:24.810Z,52.28
2023-01-19T07:55:56.432Z,56.90
2023-01-19T07:58:24.727Z,47.58
2023-01-19T08:00:52.911Z,40.97
2023-01-19T08:03:21.223Z,40.05
2023-01-19T08:05:51.550Z,45.67
2023-01-19T08:08:20.141Z,36.20
2023-01-19T08:10:52.590Z,40.15
2023-01-19T08:13:20.821Z,29.55
2023-01-19T08:15:51.189Z,29.08
2023-01-19T08:18:19.873Z,30.75
2023-01-19T08:20:47.927Z,32.90
2023-01-19T08:23:17.981Z,33.33
2023-01-19T08:25:46.166Z,31.33
2023-01-19T08:28:17.610Z,30.73
2023-01-19T08:30:46.218Z,34.03
2023-01-19T08:33:14.859Z,39.13
2023-01-19T08:35:44.310Z,45.63
2023-01-19T08:38:12.546Z,50.35
2023-01-19T08:40:42.022Z,61.75
2023-01-19T08:43:11.779Z,69.38
2023-01-19T08:45:46.489Z,88.55
2023-01-19T08:48:15.210Z,74.40
2023-01-19T08:50:43.197Z,66.85
2023-01-19T08:53:11.566Z,64.15
2023-01-19T08:55:39.710Z,61.03
2023-01-19T08:58:08.940Z,68.22
2023-01-19T09:00:38.737Z,64.28
2023-01-19T09:03:09.656Z,58.95
2023-01-19T09:05:38.743Z,66.43
2023-01-19T09:08:09.330Z,58.70
2023-01-19T09:10:39.060Z,67.50
2023-01-19T09:13:10.821Z,68.60
2023-01-19T09:15:39.272Z,73.07
2023-01-19T09:18:13.457Z,73.00
2023-01-19T09:20:42.651Z,83.43
2023-01-19T09:23:11.685Z,84.00
2023-01-19T09:25:39.604Z,97.32
2023-01-19T09:28:09.449Z,87.05
2023-01-19T09:30:38.531Z,83.47
2023-01-19T09:33:11.061Z,95.63
2023-01-19T09:38:08.817Z,88.28
2023-01-19T09:40:37.787Z,93.35
2023-01-19T09:43:14.152Z,85.45
2023-01-19T09:45:50.821Z,85.70
2023-01-19T09:48:29.527Z,80.35
2023-01-19T09:50:59.742Z,85.63
2023-01-19T09:53:39.589Z,83.65
2023-01-19T09:56:12.094Z,88.13
2023-01-19T09:58:41.464Z,82.95
2023-01-19T10:01:28.967Z,95.28
2023-01-19T10:04:21.138Z,104.25
2023-01-19T10:06:49.484Z,96.32
2023-01-19T10:09:22.470Z,99.60
2023-01-19T10:11:54.417Z,99.70
2023-01-19T10:14:26.925Z,87.82
2023-01-19T10:17:02.262Z,82.65
2023-01-19T10:19:37.808Z,87.68
2023-01-19T10:22:13.218Z,103.78
2023-01-19T10:24:43.674Z,90.28
2023-01-19T10:27:17.869Z,101.80
2023-01-19T10:29:46.674Z,97.93
2023-01-19T10:32:17.338Z,107.60
2023-01-19T10:34:47.373Z,95.65
2023-01-19T10:37:20.086Z,96.82
2023-01-19T10:39:53.481Z,99.78
2023-01-19T10:42:21.927Z,89.47
2023-01-19T10:44:50.713Z,95.57
2023-01-19T10:47:20.227Z,91.00
2023-01-19T10:49:50.224Z,96.07
2023-01-19T10:52:24.559Z,98.65
2023-01-19T10:54:52.820Z,107.88
2023-01-19T10:57:27.981Z,115.15
2023-01-19T10:59:56.172Z,109.28
2023-01-19T11:02:26.958Z,97.63
2023-01-19T11:04:58.728Z,110.65
2023-01-19T11:07:29.706Z,142.00
2023-01-19T11:10:33.347Z,130.75
2023-01-19T11:13:04.153Z,119.93
2023-01-19T11:15:37.450Z,128.38
2023-01-19T11:18:06.722Z,119.07
2023-01-19T11:20:44.250Z,111.25
2023-01-19T11:23:23.395Z,134.80
2023-01-19T11:25:53.097Z,121.57
2023-01-19T11:28:25.695Z,125.75
2023-01-19T11:30:58.665Z,112.68
2023-01-19T11:33:29.459Z,134.75
2023-01-19T11:36:06.347Z,107.22
2023-01-19T11:38:43.432Z,109.90
2023-01-19T11:41:18.606Z,150.00
2023-01-19T11:43:49.291Z,116.95
2023-01-19T11:46:19.147Z,113.18
2023-01-19T11:48:52.849Z,101.63
2023-01-19T11:51:23.326Z,163.45
2023-01-19T11:53:53.891Z,117.03
2023-01-19T11:56:24.793Z,113.88
2023-01-19T11:58:52.880Z,108.93
2023-01-19T12:01:24.723Z,130.10
2023-01-19T12:03:56.427Z,115.20
2023-01-19T12:06:29.154Z,135.52
2023-01-19T12:08:59.728Z,125.28
2023-01-19T12:11:32.040Z,104.72
2023-01-19T12:14:01.439Z,109.78
2023-01-19T12:16:31.314Z,104.30
2023-01-19T12:19:01.497Z,107.07
2023-01-19T12:21:31.171Z,104.50
2023-01-19T12:24:07.162Z,96.43
2023-01-19T12:26:38.574Z,105.72
2023-01-19T12:29:12.019Z,91.57
2023-01-19T12:31:42.797Z,108.53
2023-01-19T12:34:36.002Z,103.53
2023-01-19T12:37:08.003Z,98.10
2023-01-19T12:39:36.423Z,114.75
2023-01-19T12:42:07.546Z,108.55
2023-01-19T12:44:35.797Z,113.30
2023-01-19T12:47:21.029Z,114.93
2023-01-19T12:49:51.428Z,115.28
2023-01-19T12:52:26.682Z,122.80
2023-01-19T12:55:21.601Z,126.28
2023-01-19T12:57:56.449Z,126.97
2023-01-19T13:00:38.622Z,116.68
2023-01-19T13:03:48.349Z,109.88
2023-01-19T13:06:16.479Z,130.07
2023-01-19T13:09:00.220Z,119.60
2023-01-19T13:11:33.310Z,149.10
2023-01-19T13:14:35.227Z,120.07
2023-01-19T13:17:26.889Z,122.30
2023-01-19T13:20:02.941Z,130.60
2023-01-19T13:23:19.201Z,147.02
2023-01-19T13:25:54.385Z,127.10
2023-01-19T13:28:30.196Z,140.70
2023-01-19T13:31:02.502Z,141.68
2023-01-19T13:33:40.730Z,138.63
2023-01-19T13:36:20.737Z,171.98
2023-01-19T13:38:49.313Z,155.40
2023-01-19T13:41:24.663Z,145.95
2023-01-19T13:43:58.321Z,160.48
2023-01-19T13:46:27.852Z,134.40
2023-01-19T13:48:57.288Z,142.55
2023-01-19T13:51:25.485Z,133.55
2023-01-19T13:53:57.683Z,135.75
2023-01-19T13:59:09.844Z,112.00
2023-01-19T14:01:39.711Z,120.53
2023-01-19T14:04:28.621Z,136.38
2023-01-19T14:06:58.629Z,120.60
2023-01-19T14:09:26.533Z,125.65
2023-01-19T14:12:13.912Z,160.05
2023-01-19T14:14:42.638Z,163.73
2023-01-19T14:17:25.421Z,184.23
2023-01-19T14:19:55.084Z,169.82
2023-01-19T14:22:38.780Z,150.52
2023-01-19T14:25:31.882Z,142.23
2023-01-19T14:28:38.477Z,153.15
2023-01-19T14:31:20.791Z,146.65
2023-01-19T14:33:50.384Z,142.63
2023-01-19T14:36:30.478Z,147.55
2023-01-19T14:39:00.614Z,142.10
2023-01-19T14:41:33.233Z,124.78
2023-01-19T14:44:03.174Z,136.30
2023-01-19T14:46:31.333Z,162.15
2023-01-19T14:49:02.836Z,174.05
2023-01-19T14:51:31.531Z,135.27
2023-01-19T14:54:01.219Z,134.13
2023-01-19T14:56:31.320Z,110.88
2023-01-19T14:59:01.070Z,120.97
2023-01-19T15:01:31.802Z,107.38
2023-01-19T15:04:00.164Z,109.93
2023-01-19T15:06:28.284Z,113.28
2023-01-19T15:08:56.767Z,106.95
2023-01-19T15:11:27.352Z,111.97
2023-01-19T15:13:56.115Z,115.25
2023-01-19T15:16:24.576Z,126.70
2023-01-19T15:18:54.231Z,112.85
2023-01-19T15:21:23.629Z,104.15
2023-01-19T15:23:52.264Z,116.65
2023-01-19T15:26:21.610Z,135.43
2023-01-19T15:28:51.564Z,113.38
2023-01-19T15:31:21.763Z,109.43
2023-01-19T15:33:50.580Z,101.60
2023-01-19T15:36:21.844Z,115.55
2023-01-19T15:41:24.002Z,90.63
2023-01-19T15:43:52.570Z,98.93
2023-01-19T15:46:21.609Z,106.05
2023-01-19T15:48:50.563Z,112.45
2023-01-19T15:51:22.407Z,116.93
2023-01-19T15:53:50.844Z,92.63
2023-01-19T15:56:21.059Z,85.10
2023-01-19T15:58:49.418Z,88.70
2023-01-19T16:01:19.175Z,90.15
2023-01-19T16:03:47.587Z,102.38
2023-01-19T16:06:16.522Z,101.30
2023-01-19T16:08:46.193Z,88.88
2023-01-19T16:11:15.323Z,81.75
2023-01-19T16:13:46.179Z,79.90
2023-01-19T16:16:16.992Z,85.40
2023-01-19T16:18:45.897Z,111.38
2023-01-19T16:21:14.105Z,93.68
2023-01-19T16:23:42.519Z,102.10
2023-01-19T16:26:29.040Z,91.30
2023-01-19T16:28:58.639Z,79.30
2023-01-19T16:31:27.109Z,87.45
2023-01-19T16:33:55.431Z,83.53
2023-01-19T16:36:26.265Z,82.80
2023-01-19T16:38:54.818Z,89.03
2023-01-19T16:41:24.089Z,79.60
2023-01-19T16:43:53.705Z,84.28
2023-01-19T16:46:23.301Z,87.47
2023-01-19T16:48:51.991Z,104.57
2023-01-19T16:51:20.523Z,81.53
2023-01-19T16:53:50.727Z,84.93
2023-01-19T16:56:18.938Z,107.00
2023-01-19T16:58:48.686Z,82.72
2023-01-19T17:01:20.074Z,80.60
2023-01-19T17:03:48.940Z,83.60
2023-01-19T17:06:20.093Z,90.57
2023-01-19T17:08:48.850Z,78.73
2023-01-19T17:11:20.555Z,87.45
2023-01-19T17:13:50.877Z,86.45
2023-01-19T17:16:18.866Z,84.20
2023-01-19T17:18:47.278Z,82.05
2023-01-19T17:21:17.787Z,80.97
2023-01-19T17:23:47.499Z,86.45
2023-01-19T17:26:15.953Z,83.05
2023-01-19T17:28:44.446Z,81.32
2023-01-19T17:31:15.224Z,75.43
2023-01-19T17:33:45.165Z,72.13
2023-01-19T17:36:14.602Z,72.28
2023-01-19T17:38:43.206Z,75.20
2023-01-19T17:41:14.880Z,74.32
2023-01-19T17:43:43.273Z,74.22
2023-01-19T17:46:13.096Z,73.20
2023-01-19T17:48:41.739Z,73.75
2023-01-19T17:51:11.750Z,69.72
2023-01-19T17:53:41.865Z,72.88
2023-01-19T17:56:12.375Z,68.00
2023-01-19T17:58:41.602Z,71.40
2023-01-19T18:01:10.541Z,72.25
2023-01-19T18:03:40.632Z,72.47
2023-01-19T18:06:09.475Z,76.07
2023-01-19T18:08:39.856Z,71.00
2023-01-19T18:11:08.837Z,76.13
2023-01-19T18:13:37.549Z,75.38
2023-01-19T18:16:07.692Z,72.63
2023-01-19T18:18:36.517Z,64.03
2023-01-19T18:21:07.574Z,70.25
2023-01-19T18:23:36.487Z,68.75
2023-01-19T18:26:06.582Z,73.65
2023-01-19T18:28:35.034Z,69.13
2023-01-19T18:31:03.456Z,72.72
2023-01-19T18:33:33.983Z,70.82
2023-01-19T18:36:02.488Z,70.03
2023-01-19T18:38:32.376Z,77.05
2023-01-19T18:41:04.257Z,73.10
2023-01-19T18:43:32.669Z,74.00
2023-01-19T18:46:00.776Z,70.35
2023-01-19T18:48:29.287Z,71.40
2023-01-19T18:50:57.486Z,66.60
2023-01-19T18:53:25.708Z,65.75
2023-01-19T18:55:56.583Z,64.50
2023-01-19T18:58:28.448Z,66.22
2023-01-19T19:00:56.873Z,65.25
2023-01-19T19:03:25.489Z,64.68
2023-01-19T19:05:53.893Z,62.90
2023-01-19T19:08:22.124Z,66.05
2023-01-19T19:10:50.234Z,67.45
2023-01-19T19:13:21.789Z,59.67
2023-01-19T19:15:50.432Z,67.43
2023-01-19T19:18:18.845Z,65.45
2023-01-19T19:20:46.905Z,61.45
2023-01-19T19:23:15.171Z,58.38
2023-01-19T19:25:43.061Z,54.65
2023-01-19T19:28:11.387Z,58.30
2023-01-19T19:30:41.387Z,60.40
2023-01-19T19:33:09.570Z,63.65
2023-01-19T19:35:37.555Z,62.30
2023-01-19T19:38:05.737Z,60.13
2023-01-19T19:40:33.661Z,60.03
2023-01-19T19:43:01.848Z,63.70
2023-01-19T19:45:30.349Z,58.67
2023-01-19T19:47:59.961Z,61.35
2023-01-19T19:50:28.202Z,61.85
2023-01-19T19:52:58.710Z,63.70
2023-01-19T19:55:26.778Z,63.22
2023-01-19T19:57:55.143Z,55.70
2023-01-19T20:00:23.278Z,56.60
2023-01-19T20:02:51.700Z,55.70
2023-01-19T20:05:21.369Z,52.00
2023-01-19T20:07:49.544Z,46.35
2023-01-19T20:10:18.225Z,50.08
2023-01-19T20:12:46.582Z,46.03
2023-01-19T20:15:14.629Z,48.97
2023-01-19T20:17:58.151Z,43.28
2023-01-19T20:20:28.874Z,46.85
2023-01-19T20:22:58.521Z,49.83
2023-01-19T20:25:27.122Z,50.63
2023-01-19T20:27:56.934Z,53.63
2023-01-19T20:30:24.905Z,50.10
2023-01-19T20:32:53.134Z,47.65
2023-01-19T20:35:21.286Z,48.00
2023-01-19T20:37:50.937Z,49.30
2023-01-19T20:40:18.934Z,49.97
2023-01-19T20:42:47.249Z,50.33
2023-01-19T20:45:15.374Z,52.05
2023-01-19T20:47:43.666Z,52.25
2023-01-19T20:50:12.904Z,52.33
2023-01-19T20:52:41.310Z,54.70
2023-01-19T20:55:13.177Z,59.28
2023-01-19T20:57:41.717Z,60.50
2023-01-19T21:00:11.081Z,58.88
2023-01-19T21:02:39.375Z,61.17
2023-01-19T21:05:09.026Z,63.60
2023-01-19T21:07:37.256Z,69.90
2023-01-19T21:10:05.744Z,71.18
2023-01-19T21:12:35.710Z,71.22
2023-01-19T21:15:03.665Z,98.70
2023-01-19T21:17:32.270Z,74.88
2023-01-19T21:20:00.449Z,76.63
2023-01-19T21:22:28.672Z,70.07
2023-01-19T21:24:56.786Z,77.30
2023-01-19T21:27:25.159Z,60.92
2023-01-19T21:29:54.439Z,69.78
2023-01-19T21:32:23.018Z,71.32
2023-01-19T21:34:51.009Z,69.28
2023-01-19T21:37:19.257Z,70.60
2023-01-19T21:39:47.515Z,65.65
2023-01-19T21:42:15.893Z,64.47
2023-01-19T21:44:43.802Z,64.93
2023-01-19T21:47:13.660Z,65.45
2023-01-19T21:49:41.569Z,65.40
2023-01-19T21:52:09.801Z,66.15
2023-01-19T21:54:38.189Z,64.45
2023-01-19T21:57:06.557Z,55.90
2023-01-19T21:59:34.493Z,59.45
2023-01-19T22:02:03.023Z,60.63
2023-01-19T22:04:32.632Z,61.28
2023-01-19T22:07:00.883Z,60.25
2023-01-19T22:09:28.816Z,54.67
2023-01-19T22:11:58.669Z,60.33
2023-01-19T22:14:26.706Z,57.70
2023-01-19T22:16:55.065Z,60.15
2023-01-19T22:19:23.281Z,56.72
2023-01-19T22:21:52.818Z,58.35
2023-01-19T22:24:21.011Z,56.00
2023-01-19T22:26:49.338Z,58.25
2023-01-19T22:29:17.257Z,54.42
2023-01-19T22:31:45.793Z,59.70
2023-01-19T22:34:15.792Z,57.92
2023-01-19T22:36:44.379Z,54.38
2023-01-19T22:39:14.681Z,51.97
2023-01-19T22:41:44.825Z,50.42
2023-01-19T22:44:14.584Z,50.65
2023-01-19T22:46:43.282Z,50.53
2023-01-19T22:49:13.745Z,52.05
2023-01-19T22:51:42.326Z,50.78
2023-01-19T22:54:10.825Z,49.53
2023-01-19T22:56:41.799Z,53.08
2023-01-19T22:59:09.882Z,50.97
2023-01-19T23:01:40.094Z,49.47
2023-01-19T23:04:09.967Z,47.33
2023-01-19T23:06:38.593Z,48.60
2023-01-19T23:09:08.701Z,47.25
2023-01-19T23:11:39.048Z,46.28
2023-01-19T23:14:11.470Z,49.40
2023-01-19T23:16:39.715Z,51.15
2023-01-19T23:19:07.980Z,51.28
2023-01-19T23:21:36.915Z,44.90
2023-01-19T23:24:05.656Z,47.85
2023-01-19T23:26:38.095Z,49.05
2023-01-19T23:29:11.214Z,49.30
2023-01-19T23:31:40.828Z,49.55
2023-01-19T23:34:10.721Z,45.67
2023-01-19T23:36:40.435Z,48.88
2023-01-19T23:39:10.995Z,50.10
2023-01-19T23:41:39.554Z,46.53
2023-01-19T23:44:09.077Z,50.55
2023-01-19T23:46:37.572Z,47.95
2023-01-19T23:49:05.641Z,47.08
2023-01-19T23:51:35.783Z,44.97
2023-01-19T23:54:04.066Z,44.60
2023-01-19T23:56:33.825Z,42.88
2023-01-19T23:59:03.346Z,44.03
